Round Rock, TX (78665)

9:41 AM CDT on March 25, 2017 (GMT -0500)
Estates at Settlers Park | | Change Station

Elev 728 ft 30.55 °N, 97.63 °W | Updated 18 seconds ago

Clear
Clear
59.0 °F
Feels Like 59.0 °F
N
4.7
Wind Variable Wind from NNE

Today
High -- | Low -- °F
--% Chance of Precip.
Yesterday
High -- | Low -- °F
Precip. -- in
Pressure 30.08 in
Visibility 10.0 miles
Clouds Clear
Dew Point 45 °F
Humidity 60%
Rainfall 0.00 in
Snow Depth Not available.
7:27 AM 7:45 PM
Waning Crescent, 8% visible
METAR KGTU 251350Z 28005KT 10SM CLR 13/05 A3008
Pressure 30.08 in
Visibility 10.0 miles
Clouds Clear
Dew Point 45 °F
Humidity 60%
Rainfall 0.00 in
Snow Depth Not available.
7:27 AM 7:45 PM
Waning Crescent, 8% visible
METAR KGTU 251350Z 28005KT 10SM CLR 13/05 A3008

Get Severe Weather Alerts

Thanks for signing up!

Be on the lookout for a verification email in your inbox.

You'll start receiving the daily forecast at 8 AM.

×

10-Day Weather Forecast

Almanac

Astronomy

Mar. 25, 2017 Rise Set
Actual Time
Civil Twilight
Nautical Twilight
Astronomical Twilight
Moon
Length of Visible Light
Length of Day
Tomorrow will be .
, % of the Moon is Illuminated

Today's Extremes

State Highs State Lows

Community

WunderPhotos

Upload Photos

1,962,540 photos uploaded!

WunderBlog® & News

Nearby

Air Quality

  Air Quality AQ Index Pollutant
Not available.

Snow Depth

Station Depth Elevation

Earthquake Activity

City Distance Mag. Time & Date
Minimum magnitude displayed is 2.5.

Earthquake Activity

City Distance Mag. Time & Date
Minimum magnitude displayed is 2.5.

Coastal Water Temperatures

Place Temperature

Stations

Nearby Weather Stations

Station Location Temp. Windchill Dew Point Humidity Wind Precip. Elev Updated Type
                   

Watches & Warnings

There are currently no watches in effect.